Archiv-/Tagesdaten

--Timestamp---	Temp	Chill	HIndex	Humid	Dewpt	 Wind 	HiWind	WindDir	Rain 	Barom	Solar	 ET  	 UV 
--------------	----	-----	------	-----	-----	------	------	-------	-----	-----	-----	-----	----
20260504 00:00	18.1	18.1	18.1	53	8.3	5	8	248	0.0	1010.6	0	0.051	0.0
20260504 00:05	18.1	18.1	18.1	52	8.0	3	8	270	0.0	1010.4	0	0.000	0.0
20260504 00:10	18.1	18.1	18.1	53	8.3	3	5	270	0.0	1010.4	0	0.000	0.0
20260504 00:15	18.0	18.0	18.0	53	8.3	3	6	270	0.0	1010.4	0	0.000	0.0
20260504 00:20	18.0	18.0	18.0	54	8.5	2	5	270	0.0	1010.6	0	0.000	0.0
20260504 00:25	17.9	17.9	17.9	54	8.5	3	5	270	0.0	1010.6	0	0.000	0.0
20260504 00:30	17.8	17.8	17.8	54	8.4	2	5	270	0.0	1010.6	0	0.000	0.0
20260504 00:35	17.8	17.8	17.8	54	8.3	2	2	270	0.0	1010.6	0	0.000	0.0
20260504 00:40	17.7	17.7	17.7	55	8.6	0	2	270	0.0	1010.7	0	0.000	0.0
20260504 00:45	17.6	17.6	17.6	55	8.5	2	8	270	0.0	1010.9	0	0.000	0.0
20260504 00:50	17.5	17.5	17.5	56	8.6	3	10	270	0.0	1010.9	0	0.000	0.0
20260504 00:55	17.4	17.4	17.4	56	8.5	5	11	248	0.0	1011.0	0	0.000	0.0
20260504 01:00	17.3	17.3	17.3	57	8.7	5	10	248	0.0	1011.0	0	0.051	0.0
20260504 01:05	17.2	17.2	17.2	57	8.6	5	10	248	0.0	1010.9	0	0.000	0.0
20260504 01:10	17.3	17.3	17.3	57	8.7	6	10	248	0.0	1010.9	0	0.000	0.0
20260504 01:15	17.4	17.4	17.4	58	9.0	5	8	248	0.0	1010.9	0	0.000	0.0
20260504 01:20	17.4	17.4	17.4	58	9.0	3	6	225	0.0	1011.0	0	0.000	0.0
20260504 01:25	17.3	17.3	17.3	59	9.2	3	5	225	0.0	1011.0	0	0.000	0.0
20260504 01:30	17.2	17.2	17.2	59	9.1	2	6	225	0.0	1011.1	0	0.000	0.0
20260504 01:35	17.1	17.1	17.1	59	9.0	6	16	248	0.0	1011.2	0	0.000	0.0
20260504 01:40	17.2	17.2	17.2	59	9.1	5	8	270	0.0	1011.2	0	0.000	0.0
20260504 01:45	17.2	17.2	17.2	59	9.1	6	11	270	0.0	1011.3	0	0.000	0.0
20260504 01:50	17.2	17.2	17.2	60	9.3	5	10	270	0.0	1011.3	0	0.000	0.0
20260504 01:55	17.1	17.1	17.1	60	9.2	5	10	292	0.0	1011.4	0	0.000	0.0
20260504 02:00	16.9	16.9	16.9	61	9.4	5	10	270	0.0	1011.5	0	0.051	0.0
20260504 02:05	16.9	16.9	16.9	61	9.3	6	14	270	0.0	1011.6	0	0.000	0.0
20260504 02:10	16.8	16.8	16.8	59	8.7	8	18	270	0.0	1011.7	0	0.000	0.0
20260504 02:15	16.7	16.7	16.7	59	8.7	8	14	270	0.0	1011.8	0	0.000	0.0
20260504 02:20	16.7	16.7	16.7	60	8.9	6	11	225	0.0	1011.9	0	0.000	0.0
20260504 02:25	16.6	16.6	16.6	60	8.8	6	14	248	0.0	1011.9	0	0.000	0.0
20260504 02:30	16.4	16.4	16.4	60	8.7	8	14	248	0.0	1012.0	0	0.000	0.0
20260504 02:35	16.4	16.4	16.4	59	8.4	8	16	270	0.0	1012.0	0	0.000	0.0
20260504 02:40	16.3	16.3	16.3	58	8.0	10	16	248	0.0	1012.2	0	0.000	0.0
20260504 02:45	16.2	16.2	16.2	57	7.6	8	18	248	0.0	1012.2	0	0.000	0.0
20260504 02:50	16.1	16.1	16.1	56	7.3	8	19	270	0.0	1012.3	0	0.000	0.0
20260504 02:55	16.1	16.1	16.1	55	7.0	10	24	270	0.0	1012.2	0	0.000	0.0
20260504 03:00	16.1	16.1	16.1	55	7.0	8	18	270	0.0	1012.3	0	0.076	0.0
20260504 03:05	16.0	16.0	16.0	55	7.0	6	11	248	0.0	1012.3	0	0.000	0.0
20260504 03:10	15.9	15.9	15.9	55	6.9	8	16	270	0.0	1012.3	0	0.000	0.0
20260504 03:15	15.9	15.9	15.9	55	6.9	8	18	292	0.0	1012.2	0	0.000	0.0
20260504 03:20	15.8	15.8	15.8	55	6.8	6	11	292	0.0	1012.2	0	0.000	0.0
20260504 03:25	15.8	15.8	15.8	55	6.8	6	14	292	0.0	1012.2	0	0.000	0.0
20260504 03:30	15.7	15.7	15.7	56	7.0	6	10	270	0.0	1012.3	0	0.000	0.0
20260504 03:35	15.7	15.7	15.7	56	6.9	5	8	270	0.0	1012.5	0	0.000	0.0
20260504 03:40	15.6	15.6	15.6	56	6.9	5	8	270	0.0	1012.5	0	0.000	0.0
20260504 03:45	15.6	15.6	15.6	56	6.8	5	8	248	0.0	1012.4	0	0.000	0.0
20260504 03:50	15.5	15.5	15.5	56	6.8	3	6	248	0.0	1012.4	0	0.000	0.0
20260504 03:55	15.5	15.5	15.5	56	6.8	3	5	248	0.0	1012.4	0	0.000	0.0
20260504 04:00	15.4	15.4	15.4	57	6.9	3	8	248	0.0	1012.4	0	0.051	0.0
20260504 04:05	15.3	15.3	15.3	57	6.9	5	8	225	0.0	1012.6	0	0.000	0.0
20260504 04:10	15.3	15.3	15.3	58	7.1	2	6	202	0.0	1012.6	0	0.000	0.0
20260504 04:15	15.3	15.3	15.3	59	7.3	3	8	225	0.0	1012.6	0	0.000	0.0
20260504 04:20	15.2	15.2	15.2	59	7.2	3	6	225	0.0	1012.4	0	0.000	0.0
20260504 04:25	15.2	15.2	15.2	59	7.2	3	8	248	0.0	1012.5	0	0.000	0.0
20260504 04:30	15.2	15.2	15.2	60	7.5	3	6	225	0.0	1012.6	0	0.000	0.0
20260504 04:35	15.1	15.1	15.1	59	7.2	3	6	248	0.0	1012.4	0	0.000	0.0
20260504 04:40	15.1	15.1	15.1	59	7.2	2	5	248	0.0	1012.4	0	0.000	0.0
20260504 04:45	15.1	15.1	15.1	60	7.4	5	8	225	0.0	1012.5	0	0.000	0.0
20260504 04:50	15.1	15.1	15.1	60	7.3	2	6	225	0.0	1012.3	0	0.000	0.0
20260504 04:55	15.1	15.1	15.1	60	7.3	2	5	225	0.0	1012.3	0	0.000	0.0
20260504 05:00	14.9	14.9	14.9	61	7.5	2	5	248	0.0	1012.3	0	0.051	0.0
20260504 05:05	14.9	14.9	14.9	61	7.4	3	5	248	0.0	1012.4	0	0.000	0.0
20260504 05:10	14.8	14.8	14.8	61	7.3	2	6	248	0.0	1012.5	0	0.000	0.0
20260504 05:15	14.8	14.8	14.8	61	7.3	2	5	225	0.0	1012.4	0	0.000	0.0
20260504 05:20	14.8	14.8	14.8	61	7.3	2	3	225	0.0	1012.4	0	0.000	0.0
20260504 05:25	14.8	14.8	14.8	61	7.3	2	5	225	0.0	1012.4	0	0.000	0.0
20260504 05:30	14.7	14.7	14.7	62	7.5	3	5	225	0.0	1012.5	0	0.000	0.0
20260504 05:35	14.6	14.6	14.6	62	7.4	3	6	225	0.0	1012.5	0	0.000	0.0
20260504 05:40	14.6	14.6	14.6	62	7.4	2	5	225	0.0	1012.6	0	0.000	0.0
20260504 05:45	14.6	14.6	14.6	62	7.4	2	5	225	0.0	1012.6	0	0.000	0.0
20260504 05:50	14.5	14.5	14.5	62	7.3	2	5	225	0.0	1012.6	0	0.000	0.0
20260504 05:55	14.5	14.5	14.5	62	7.3	2	3	202	0.0	1012.5	0	0.000	0.0
20260504 06:00	14.4	14.4	14.4	62	7.3	2	5	202	0.0	1012.4	0	0.025	0.0
20260504 06:05	14.5	14.5	14.5	62	7.3	2	5	202	0.0	1012.5	0	0.000	0.0
20260504 06:10	14.5	14.5	14.5	62	7.3	2	3	202	0.0	1012.4	3	0.000	0.0
20260504 06:15	14.4	14.4	14.4	62	7.3	2	3	202	0.0	1012.4	6	0.000	0.0
20260504 06:20	14.4	14.4	14.4	62	7.3	0	2	202	0.0	1012.4	8	0.000	0.0
20260504 06:25	14.4	14.4	14.4	61	7.0	0	5	202	0.0	1012.4	11	0.000	0.0
20260504 06:30	14.5	14.5	14.5	62	7.3	2	5	202	0.0	1012.4	12	0.000	0.0
20260504 06:35	14.5	14.5	14.5	62	7.3	0	3	202	0.0	1012.4	20	0.000	0.0
20260504 06:40	14.5	14.5	14.5	62	7.3	2	5	202	0.0	1012.4	25	0.000	0.0
20260504 06:45	14.5	14.5	14.5	62	7.3	2	5	202	0.0	1012.4	29	0.000	0.0
20260504 06:50	14.6	14.6	14.6	62	7.4	2	5	202	0.0	1012.5	33	0.000	0.0
20260504 06:55	14.6	14.6	14.6	63	7.6	2	5	202	0.0	1012.4	35	0.000	0.0
20260504 07:00	14.6	14.6	14.6	64	7.8	0	5	202	0.0	1012.5	37	0.025	0.0
20260504 07:05	14.6	14.6	14.6	64	7.9	2	5	202	0.0	1012.8	48	0.000	0.0
20260504 07:10	14.7	14.7	14.7	65	8.2	3	6	180	0.0	1012.7	57	0.000	0.0
20260504 07:15	14.7	14.7	14.7	65	8.2	2	6	180	0.0	1012.7	62	0.000	0.0
20260504 07:20	14.8	14.8	14.8	65	8.3	2	6	180	0.0	1012.8	76	0.000	0.0
20260504 07:25	14.9	14.9	14.9	65	8.4	3	6	180	0.0	1012.8	89	0.000	0.0
20260504 07:30	14.9	14.9	14.9	65	8.4	2	5	180	0.0	1012.7	105	0.000	0.0
20260504 07:35	15.1	15.1	15.1	65	8.5	2	5	180	0.0	1012.8	204	0.000	0.0
20260504 07:40	15.2	15.2	15.2	65	8.7	0	3	180	0.0	1012.7	140	0.000	0.0
20260504 07:45	15.4	15.4	15.4	64	8.7	2	3	180	0.0	1012.5	114	0.000	0.0
20260504 07:50	15.7	15.7	15.7	62	8.4	2	5	180	0.0	1012.5	283	0.000	0.0
20260504 07:55	16.0	16.0	16.0	60	8.2	0	3	180	0.0	1012.5	276	0.000	0.1
20260504 08:00	16.2	16.2	16.2	59	8.2	0	3	180	0.0	1012.5	130	0.076	0.0
20260504 08:05	16.4	16.4	16.4	57	7.8	0	0	-100000	0.0	1012.6	233	0.000	0.3
20260504 08:10	16.6	16.6	16.6	56	7.8	0	0	-100000	0.0	1012.5	293	0.000	0.5
20260504 08:15	16.9	16.9	16.9	55	7.8	0	2	180	0.0	1012.6	291	0.000	0.5
20260504 08:20	17.7	17.7	17.7	53	8.0	0	3	180	0.0	1012.4	303	0.000	0.6
20260504 08:25	18.3	18.3	18.3	53	8.5	0	2	180	0.0	1012.4	313	0.000	0.6
20260504 08:30	18.7	18.7	18.7	49	7.7	2	5	135	0.0	1012.3	295	0.000	0.6
20260504 08:35	18.8	18.8	18.8	48	7.6	0	3	135	0.0	1012.3	334	0.000	0.7
20260504 08:40	19.1	19.1	19.1	48	7.8	2	5	112	0.0	1012.3	326	0.000	0.7
20260504 08:45	19.1	19.1	19.1	47	7.5	0	3	112	0.0	1012.4	322	0.000	0.7
20260504 08:50	19.1	19.1	19.1	47	7.5	2	5	90	0.0	1012.4	362	0.000	0.8
20260504 08:55	19.0	19.0	19.0	49	8.0	2	5	90	0.0	1012.5	368	0.000	0.8
20260504 09:00	18.9	18.9	18.9	48	7.6	2	3	90	0.0	1012.4	319	0.178	0.8
20260504 09:05	18.8	18.8	18.8	49	7.9	2	3	90	0.0	1012.7	303	0.000	0.8
20260504 09:10	18.8	18.8	18.8	48	7.6	2	5	90	0.0	1012.6	363	0.000	0.9
20260504 09:15	19.0	19.0	19.0	49	8.0	0	3	68	0.0	1012.6	391	0.000	1.0
20260504 09:20	19.3	19.3	19.3	48	8.0	2	6	68	0.0	1012.6	439	0.000	1.1
20260504 09:25	19.4	19.4	19.4	48	8.1	2	8	68	0.0	1012.6	458	0.000	1.2
20260504 09:30	19.8	19.8	19.8	47	8.1	2	8	68	0.0	1012.6	447	0.000	1.2
20260504 09:35	19.7	19.7	19.7	47	8.1	5	10	45	0.0	1012.5	446	0.000	1.2
20260504 09:40	19.6	19.6	19.6	47	8.0	2	6	45	0.0	1012.6	443	0.000	1.3
20260504 09:45	19.8	19.8	19.8	48	8.4	3	5	45	0.0	1012.5	454	0.000	1.3
20260504 09:50	19.8	19.8	19.8	47	8.2	2	5	45	0.0	1012.6	409	0.000	1.3
20260504 09:55	19.8	19.8	19.8	47	8.1	2	6	45	0.0	1012.5	410	0.000	1.4
20260504 10:00	19.7	19.7	19.7	47	8.0	5	8	22	0.0	1012.5	188	0.254	1.1
20260504 10:05	19.4	19.4	19.4	48	8.1	3	10	45	0.0	1012.6	147	0.000	1.0
20260504 10:10	19.5	19.5	19.5	49	8.5	0	3	0	0.0	1012.6	135	0.000	1.0
20260504 10:15	19.6	19.6	19.6	49	8.6	5	10	22	0.0	1012.6	131	0.000	1.1
20260504 10:20	19.6	19.6	19.6	49	8.6	3	5	22	0.0	1012.5	132	0.000	1.1
20260504 10:25	19.6	19.6	19.6	49	8.6	2	5	22	0.0	1012.5	132	0.000	1.1
20260504 10:30	19.9	19.9	19.9	50	9.2	3	8	68	0.0	1012.4	131	0.000	1.2
20260504 10:35	20.2	20.2	20.2	49	9.1	3	10	68	0.0	1012.4	129	0.000	1.2
20260504 10:40	20.3	20.3	20.3	48	8.9	3	6	68	0.0	1012.4	127	0.000	1.2
20260504 10:45	20.3	20.3	20.3	47	8.6	5	11	68	0.0	1012.3	120	0.000	1.2
20260504 10:50	20.2	20.2	20.2	47	8.5	5	10	68	0.0	1012.3	120	0.000	1.2
20260504 10:55	20.3	20.3	20.3	47	8.6	6	16	68	0.0	1012.1	138	0.000	1.3
20260504 11:00	20.2	20.2	20.2	48	8.9	3	11	45	0.0	1012.2	155	0.102	1.3
20260504 11:05	20.1	20.1	20.1	48	8.8	6	13	22	0.0	1012.2	175	0.000	1.3
20260504 11:10	20.1	20.1	20.1	48	8.7	5	10	45	0.0	1012.1	194	0.000	1.4
20260504 11:15	20.3	20.3	20.3	48	9.0	6	13	45	0.0	1012.0	166	0.000	1.4
20260504 11:20	20.6	20.6	20.6	46	8.5	10	16	22	0.0	1011.9	149	0.000	1.4
20260504 11:25	20.7	20.7	20.7	47	9.0	6	14	45	0.0	1011.9	169	0.000	1.5
20260504 11:30	20.8	20.8	20.8	46	8.8	10	16	22	0.0	1011.9	131	0.000	1.4
20260504 11:35	20.9	20.9	20.9	47	9.1	6	18	22	0.0	1011.8	112	0.000	1.4
20260504 11:40	20.8	20.8	20.8	46	8.8	6	18	22	0.0	1011.7	121	0.000	1.4
20260504 11:45	20.8	20.8	20.8	47	9.1	6	16	22	0.0	1011.7	167	0.000	1.4
20260504 11:50	21.1	21.1	21.1	46	9.0	8	18	45	0.0	1011.7	653	0.000	1.4
20260504 11:55	20.9	20.9	20.9	47	9.2	3	10	22	0.0	1011.6	453	0.000	1.8
20260504 12:00	21.0	21.0	21.0	47	9.2	5	14	22	0.0	1011.6	120	0.178	1.5
20260504 12:05	20.7	20.7	20.7	47	9.0	6	16	68	0.0	1011.7	152	0.000	1.6
20260504 12:10	20.7	20.7	20.7	48	9.3	5	11	0	0.0	1011.6	343	0.000	2.3
20260504 12:15	21.0	21.0	21.0	49	9.9	6	11	22	0.0	1011.5	718	0.000	3.1
20260504 12:20	21.6	21.6	21.6	47	9.8	8	21	68	0.0	1011.2	723	0.000	3.0
20260504 12:25	21.8	21.8	21.8	46	9.7	10	16	68	0.0	1011.2	734	0.000	3.1
20260504 12:30	22.1	22.1	22.1	46	9.9	8	13	68	0.0	1011.1	744	0.000	3.2
20260504 12:35	22.1	22.1	22.1	45	9.6	8	21	22	0.0	1011.0	732	0.000	3.2
20260504 12:40	22.2	22.2	22.2	45	9.7	6	16	45	0.0	1010.9	736	0.000	3.2
20260504 12:45	22.6	22.6	22.6	44	9.7	6	14	68	0.0	1010.9	707	0.000	3.2
20260504 12:50	22.8	22.8	22.8	44	9.9	8	18	68	0.0	1010.7	735	0.000	3.2
20260504 12:55	22.7	22.7	22.7	44	9.8	8	18	68	0.0	1010.5	702	0.000	3.1
20260504 13:00	22.9	22.9	22.9	44	10.0	8	14	68	0.0	1010.5	671	0.432	3.0
20260504 13:05	22.8	22.8	22.8	43	9.6	11	19	68	0.0	1010.3	719	0.000	3.2
20260504 13:10	22.8	22.8	22.8	44	9.9	10	16	45	0.0	1010.3	723	0.000	3.2
20260504 13:15	22.9	22.9	22.9	44	10.0	11	21	22	0.0	1010.2	677	0.000	3.1
20260504 13:20	23.2	23.2	23.2	43	9.9	8	16	45	0.0	1010.2	697	0.000	3.1
20260504 13:25	23.2	23.2	23.2	44	10.3	6	13	68	0.0	1010.1	692	0.000	3.2
20260504 13:30	23.4	23.4	23.4	42	9.8	6	13	68	0.0	1010.0	709	0.000	3.2
20260504 13:35	23.4	23.4	23.4	43	10.1	10	14	45	0.0	1010.0	725	0.000	3.2
20260504 13:40	23.4	23.4	23.4	42	9.7	8	18	45	0.0	1009.8	686	0.000	3.0
20260504 13:45	23.5	23.5	23.5	43	10.2	10	21	45	0.0	1009.8	590	0.000	2.7
20260504 13:50	23.5	23.5	23.5	43	10.2	8	18	45	0.0	1009.8	513	0.000	2.5
20260504 13:55	23.4	23.4	23.4	43	10.1	5	14	90	0.0	1009.8	537	0.000	2.5
20260504 14:00	23.4	23.4	23.4	43	10.1	6	18	45	0.0	1009.7	576	0.457	2.7
20260504 14:05	23.7	23.7	23.7	44	10.7	8	16	45	0.0	1009.6	644	0.000	2.8
20260504 14:10	23.7	23.7	23.7	43	10.3	6	18	45	0.0	1009.5	617	0.000	2.8
20260504 14:15	23.7	23.7	23.7	42	10.0	6	18	45	0.0	1009.5	621	0.000	2.7
20260504 14:20	23.6	23.6	23.6	43	10.2	8	18	45	0.0	1009.6	457	0.000	2.2
20260504 14:25	23.9	23.9	25.3	42	10.2	5	11	45	0.0	1009.3	514	0.000	2.3
20260504 14:30	24.0	24.0	25.3	42	10.3	8	23	45	0.0	1009.4	413	0.000	2.1
20260504 14:35	23.8	23.8	23.8	42	10.1	6	16	45	0.0	1009.3	596	0.000	2.6
20260504 14:40	24.2	24.2	25.4	42	10.4	6	14	45	0.0	1009.2	703	0.000	2.9
20260504 14:45	24.5	24.5	25.5	41	10.4	10	18	0	0.0	1009.2	747	0.000	3.0
20260504 14:50	24.8	24.8	25.6	40	10.3	8	16	68	0.0	1009.1	697	0.000	2.8
20260504 14:55	24.8	24.8	25.6	39	9.9	8	16	45	0.0	1008.9	685	0.000	2.7
20260504 15:00	24.8	24.8	25.6	39	9.9	6	11	22	0.0	1008.8	564	0.432	2.1
20260504 15:05	24.6	24.6	25.5	39	9.7	8	16	45	0.0	1008.8	305	0.000	1.8
20260504 15:10	24.4	24.4	25.5	41	10.3	6	18	68	0.0	1008.9	346	0.000	1.7
20260504 15:15	24.5	24.5	25.5	40	10.0	6	14	45	0.0	1008.8	550	0.000	2.1
20260504 15:20	24.9	24.9	25.6	39	10.0	6	13	45	0.0	1008.7	544	0.000	2.1
20260504 15:25	24.8	24.8	25.6	39	9.9	10	18	45	0.0	1008.7	370	0.000	1.7
20260504 15:30	24.4	24.4	25.4	40	9.9	8	14	45	0.0	1008.6	195	0.000	1.2
20260504 15:35	24.3	24.3	25.4	41	10.2	5	10	45	0.0	1008.5	311	0.000	1.4
20260504 15:40	24.4	24.4	25.5	40	10.0	3	6	68	0.0	1008.5	431	0.000	1.7
20260504 15:45	24.6	24.6	25.5	40	10.1	6	14	45	0.0	1008.5	393	0.000	1.5
20260504 15:50	24.7	24.7	25.5	39	9.8	6	14	45	0.0	1008.4	410	0.000	1.5
20260504 15:55	24.6	24.6	25.5	40	10.1	6	23	45	0.0	1008.3	285	0.000	1.2
20260504 16:00	24.4	24.4	25.5	40	10.0	6	14	22	0.0	1008.3	242	0.305	1.1
20260504 16:05	24.3	24.3	25.4	40	9.9	8	13	0	0.0	1008.4	223	0.000	1.0
20260504 16:10	24.3	24.3	25.4	39	9.4	5	10	45	0.0	1008.3	186	0.000	0.8
20260504 16:15	24.3	24.3	25.4	39	9.4	6	14	0	0.0	1008.3	154	0.000	0.7
20260504 16:20	24.0	24.0	25.3	40	9.6	8	18	45	0.0	1008.3	132	0.000	0.6
20260504 16:25	23.9	23.9	25.3	40	9.5	6	11	22	0.0	1008.2	131	0.000	0.6
20260504 16:30	23.8	23.8	23.8	40	9.4	5	10	22	0.0	1008.2	143	0.000	0.6



Please note the license to use and transfer of this data:
https://creativecommons.org/licenses/by-nc-sa/3.0/deed.en

Bitte beachten sie die Lizenz zur Verwertung und Weitergabe der Daten:
https://creativecommons.org/licenses/by-nc-sa/3.0/deed.de

zurück zur Übersicht der Archivdaten (Monats und Tagesdaten)

Cookies helfen bei der Bereitstellung von Inhalten. Diese Website verwendet Cookies. Mit der Nutzung der Website erklären Sie sich damit einverstanden, dass Cookies auf Ihrem Computer gespeichert werden. Außerdem bestätigen Sie, dass Sie unsere Datenschutzerklärung gelesen und verstanden haben. Wenn Sie nicht einverstanden sind, verlassen Sie die Website.Weitere Information